sensor_id;sensor_type;location;lat;lon;timestamp;temperature;humidity
18339;DHT22;9295;44.484;11.240;2024-02-16T00:00:19;7.80;99.90
18339;DHT22;9295;44.484;11.240;2024-02-16T00:02:48;7.80;99.90
18339;DHT22;9295;44.484;11.240;2024-02-16T00:05:17;7.70;99.90
18339;DHT22;9295;44.484;11.240;2024-02-16T00:07:46;7.80;99.90
18339;DHT22;9295;44.484;11.240;2024-02-16T00:10:14;7.80;99.90
18339;DHT22;9295;44.484;11.240;2024-02-16T00:12:45;7.80;99.90
18339;DHT22;9295;44.484;11.240;2024-02-16T00:15:15;7.70;99.90
18339;DHT22;9295;44.484;11.240;2024-02-16T00:17:44;7.70;99.90
18339;DHT22;9295;44.484;11.240;2024-02-16T00:20:13;7.80;99.90
18339;DHT22;9295;44.484;11.240;2024-02-16T00:22:41;7.70;99.90
18339;DHT22;9295;44.484;11.240;2024-02-16T00:25:10;7.70;99.90
18339;DHT22;9295;44.484;11.240;2024-02-16T00:27:40;7.70;99.90
18339;DHT22;9295;44.484;11.240;2024-02-16T00:30:10;7.70;99.90
18339;DHT22;9295;44.484;11.240;2024-02-16T00:32:40;7.70;99.90
18339;DHT22;9295;44.484;11.240;2024-02-16T00:35:09;7.70;99.90
18339;DHT22;9295;44.484;11.240;2024-02-16T00:37:38;7.80;99.90
18339;DHT22;9295;44.484;11.240;2024-02-16T00:40:08;7.80;99.90
18339;DHT22;9295;44.484;11.240;2024-02-16T00:42:37;7.90;99.90
18339;DHT22;9295;44.484;11.240;2024-02-16T00:45:06;7.90;99.90
18339;DHT22;9295;44.484;11.240;2024-02-16T00:47:35;8.00;99.90
18339;DHT22;9295;44.484;11.240;2024-02-16T00:50:07;8.00;99.90
18339;DHT22;9295;44.484;11.240;2024-02-16T00:52:36;8.00;99.90
18339;DHT22;9295;44.484;11.240;2024-02-16T00:55:08;8.00;99.90
18339;DHT22;9295;44.484;11.240;2024-02-16T00:57:37;8.00;99.90
18339;DHT22;9295;44.484;11.240;2024-02-16T01:00:07;8.00;99.90
18339;DHT22;9295;44.484;11.240;2024-02-16T01:02:37;8.00;99.90
18339;DHT22;9295;44.484;11.240;2024-02-16T01:05:08;7.90;99.90
18339;DHT22;9295;44.484;11.240;2024-02-16T01:07:38;7.90;99.90
18339;DHT22;9295;44.484;11.240;2024-02-16T01:10:07;7.90;99.90
18339;DHT22;9295;44.484;11.240;2024-02-16T01:12:36;8.00;99.90
18339;DHT22;9295;44.484;11.240;2024-02-16T01:15:06;7.90;99.90
18339;DHT22;9295;44.484;11.240;2024-02-16T01:17:35;7.90;99.90
18339;DHT22;9295;44.484;11.240;2024-02-16T01:20:07;8.00;99.90
18339;DHT22;9295;44.484;11.240;2024-02-16T01:22:39;8.00;99.90
18339;DHT22;9295;44.484;11.240;2024-02-16T01:25:08;8.00;99.90
18339;DHT22;9295;44.484;11.240;2024-02-16T01:27:37;7.90;99.90
18339;DHT22;9295;44.484;11.240;2024-02-16T01:30:09;7.90;99.90
18339;DHT22;9295;44.484;11.240;2024-02-16T01:32:38;7.90;99.90
18339;DHT22;9295;44.484;11.240;2024-02-16T01:35:09;7.80;99.90
18339;DHT22;9295;44.484;11.240;2024-02-16T01:37:38;7.70;99.90
18339;DHT22;9295;44.484;11.240;2024-02-16T01:40:09;7.70;99.90
18339;DHT22;9295;44.484;11.240;2024-02-16T01:42:41;7.70;99.90
18339;DHT22;9295;44.484;11.240;2024-02-16T01:45:10;7.70;99.90
18339;DHT22;9295;44.484;11.240;2024-02-16T01:47:41;7.60;99.90
18339;DHT22;9295;44.484;11.240;2024-02-16T01:50:14;7.60;99.90
18339;DHT22;9295;44.484;11.240;2024-02-16T01:52:44;7.50;99.90
18339;DHT22;9295;44.484;11.240;2024-02-16T01:55:13;7.50;99.90
18339;DHT22;9295;44.484;11.240;2024-02-16T01:57:43;7.50;99.90
18339;DHT22;9295;44.484;11.240;2024-02-16T02:00:13;7.50;99.90
18339;DHT22;9295;44.484;11.240;2024-02-16T02:02:45;7.50;99.90
18339;DHT22;9295;44.484;11.240;2024-02-16T02:05:16;7.50;99.90
18339;DHT22;9295;44.484;11.240;2024-02-16T02:07:45;7.50;99.90
18339;DHT22;9295;44.484;11.240;2024-02-16T02:10:14;7.50;99.90
18339;DHT22;9295;44.484;11.240;2024-02-16T02:12:43;7.40;99.90
18339;DHT22;9295;44.484;11.240;2024-02-16T02:15:12;7.40;99.90
18339;DHT22;9295;44.484;11.240;2024-02-16T02:17:40;7.40;99.90
18339;DHT22;9295;44.484;11.240;2024-02-16T02:20:10;7.40;99.90
18339;DHT22;9295;44.484;11.240;2024-02-16T02:22:41;7.40;99.90
18339;DHT22;9295;44.484;11.240;2024-02-16T02:25:10;7.30;99.90
18339;DHT22;9295;44.484;11.240;2024-02-16T02:27:39;7.30;99.90
18339;DHT22;9295;44.484;11.240;2024-02-16T02:30:08;7.20;99.90
18339;DHT22;9295;44.484;11.240;2024-02-16T02:32:37;7.20;99.90
18339;DHT22;9295;44.484;11.240;2024-02-16T02:35:07;7.20;99.90
18339;DHT22;9295;44.484;11.240;2024-02-16T02:37:36;7.20;99.90
18339;DHT22;9295;44.484;11.240;2024-02-16T02:40:08;7.10;99.90
18339;DHT22;9295;44.484;11.240;2024-02-16T02:42:37;7.10;99.90
18339;DHT22;9295;44.484;11.240;2024-02-16T02:45:07;7.10;99.90
18339;DHT22;9295;44.484;11.240;2024-02-16T02:47:36;7.10;99.90
18339;DHT22;9295;44.484;11.240;2024-02-16T02:50:06;7.10;99.90
18339;DHT22;9295;44.484;11.240;2024-02-16T02:52:35;7.10;99.90
18339;DHT22;9295;44.484;11.240;2024-02-16T02:55:05;7.10;99.90
18339;DHT22;9295;44.484;11.240;2024-02-16T02:57:35;7.00;99.90
18339;DHT22;9295;44.484;11.240;2024-02-16T03:00:05;7.00;99.90
18339;DHT22;9295;44.484;11.240;2024-02-16T03:02:38;7.00;99.90
18339;DHT22;9295;44.484;11.240;2024-02-16T03:05:07;7.00;99.90
18339;DHT22;9295;44.484;11.240;2024-02-16T03:07:36;7.00;99.90
18339;DHT22;9295;44.484;11.240;2024-02-16T03:10:06;6.90;99.90
18339;DHT22;9295;44.484;11.240;2024-02-16T03:12:38;6.90;99.90
18339;DHT22;9295;44.484;11.240;2024-02-16T03:15:07;6.90;99.90
18339;DHT22;9295;44.484;11.240;2024-02-16T03:17:37;6.90;99.90
18339;DHT22;9295;44.484;11.240;2024-02-16T03:20:07;6.90;99.90
18339;DHT22;9295;44.484;11.240;2024-02-16T03:22:36;6.90;99.90
18339;DHT22;9295;44.484;11.240;2024-02-16T03:25:06;6.90;99.90
18339;DHT22;9295;44.484;11.240;2024-02-16T03:27:34;6.90;99.90
18339;DHT22;9295;44.484;11.240;2024-02-16T03:30:06;6.90;99.90
18339;DHT22;9295;44.484;11.240;2024-02-16T03:32:35;6.90;99.90
18339;DHT22;9295;44.484;11.240;2024-02-16T03:35:04;6.90;99.90
18339;DHT22;9295;44.484;11.240;2024-02-16T03:37:33;6.90;99.90
18339;DHT22;9295;44.484;11.240;2024-02-16T03:40:05;6.90;99.90
18339;DHT22;9295;44.484;11.240;2024-02-16T03:42:35;6.90;99.90
18339;DHT22;9295;44.484;11.240;2024-02-16T03:45:06;6.90;99.90
18339;DHT22;9295;44.484;11.240;2024-02-16T03:47:35;6.80;99.90
18339;DHT22;9295;44.484;11.240;2024-02-16T03:50:04;6.90;99.90
18339;DHT22;9295;44.484;11.240;2024-02-16T03:52:34;6.90;99.90
18339;DHT22;9295;44.484;11.240;2024-02-16T03:55:03;6.90;99.90
18339;DHT22;9295;44.484;11.240;2024-02-16T03:57:32;6.90;99.90
18339;DHT22;9295;44.484;11.240;2024-02-16T04:00:01;6.90;99.90
18339;DHT22;9295;44.484;11.240;2024-02-16T04:02:42;6.80;99.90
18339;DHT22;9295;44.484;11.240;2024-02-16T04:05:11;6.90;99.90
18339;DHT22;9295;44.484;11.240;2024-02-16T04:07:39;6.90;99.90
18339;DHT22;9295;44.484;11.240;2024-02-16T04:10:09;6.90;99.90
18339;DHT22;9295;44.484;11.240;2024-02-16T04:12:38;7.00;99.90
18339;DHT22;9295;44.484;11.240;2024-02-16T04:15:07;7.00;99.90
18339;DHT22;9295;44.484;11.240;2024-02-16T04:17:35;7.00;99.90
18339;DHT22;9295;44.484;11.240;2024-02-16T04:20:07;7.00;99.90
18339;DHT22;9295;44.484;11.240;2024-02-16T04:22:36;7.00;99.90
18339;DHT22;9295;44.484;11.240;2024-02-16T04:25:06;7.00;99.90
18339;DHT22;9295;44.484;11.240;2024-02-16T04:27:36;7.00;99.90
18339;DHT22;9295;44.484;11.240;2024-02-16T04:30:06;7.00;99.90
18339;DHT22;9295;44.484;11.240;2024-02-16T04:32:35;7.00;99.90
18339;DHT22;9295;44.484;11.240;2024-02-16T04:35:06;7.00;99.90
18339;DHT22;9295;44.484;11.240;2024-02-16T04:37:39;7.00;99.90
18339;DHT22;9295;44.484;11.240;2024-02-16T04:40:08;7.00;99.90
18339;DHT22;9295;44.484;11.240;2024-02-16T04:42:39;7.00;99.90
18339;DHT22;9295;44.484;11.240;2024-02-16T04:45:11;6.90;99.90
18339;DHT22;9295;44.484;11.240;2024-02-16T04:47:40;6.90;99.90
18339;DHT22;9295;44.484;11.240;2024-02-16T04:50:11;6.90;99.90
18339;DHT22;9295;44.484;11.240;2024-02-16T04:52:41;6.90;99.90
18339;DHT22;9295;44.484;11.240;2024-02-16T04:55:11;6.90;99.90
18339;DHT22;9295;44.484;11.240;2024-02-16T04:57:40;6.80;99.90
18339;DHT22;9295;44.484;11.240;2024-02-16T05:00:09;6.90;99.90
18339;DHT22;9295;44.484;11.240;2024-02-16T05:02:38;6.90;99.90
18339;DHT22;9295;44.484;11.240;2024-02-16T05:05:07;6.90;99.90
18339;DHT22;9295;44.484;11.240;2024-02-16T05:07:37;6.90;99.90
18339;DHT22;9295;44.484;11.240;2024-02-16T05:10:09;6.90;99.90
18339;DHT22;9295;44.484;11.240;2024-02-16T05:12:37;6.90;99.90
18339;DHT22;9295;44.484;11.240;2024-02-16T05:15:07;6.90;99.90
18339;DHT22;9295;44.484;11.240;2024-02-16T05:17:36;6.90;99.90
18339;DHT22;9295;44.484;11.240;2024-02-16T05:20:09;6.90;99.90
18339;DHT22;9295;44.484;11.240;2024-02-16T05:22:44;6.90;99.90
18339;DHT22;9295;44.484;11.240;2024-02-16T05:25:14;6.90;99.90
18339;DHT22;9295;44.484;11.240;2024-02-16T05:27:43;6.90;99.90
18339;DHT22;9295;44.484;11.240;2024-02-16T05:30:13;6.90;99.90
18339;DHT22;9295;44.484;11.240;2024-02-16T05:32:43;6.90;99.90
18339;DHT22;9295;44.484;11.240;2024-02-16T05:35:12;6.90;99.90
18339;DHT22;9295;44.484;11.240;2024-02-16T05:37:44;6.90;99.90
18339;DHT22;9295;44.484;11.240;2024-02-16T05:40:16;6.90;99.90
18339;DHT22;9295;44.484;11.240;2024-02-16T05:42:51;6.80;99.90
18339;DHT22;9295;44.484;11.240;2024-02-16T05:45:20;6.80;99.90
18339;DHT22;9295;44.484;11.240;2024-02-16T05:47:50;6.80;99.90
18339;DHT22;9295;44.484;11.240;2024-02-16T05:50:20;6.80;99.90
18339;DHT22;9295;44.484;11.240;2024-02-16T05:52:51;6.80;99.90
18339;DHT22;9295;44.484;11.240;2024-02-16T05:55:20;6.80;99.90
18339;DHT22;9295;44.484;11.240;2024-02-16T05:57:51;6.80;99.90
18339;DHT22;9295;44.484;11.240;2024-02-16T06:00:20;6.80;99.90
18339;DHT22;9295;44.484;11.240;2024-02-16T06:02:49;6.80;99.90
18339;DHT22;9295;44.484;11.240;2024-02-16T06:05:18;6.80;99.90
18339;DHT22;9295;44.484;11.240;2024-02-16T06:07:47;6.80;99.90
18339;DHT22;9295;44.484;11.240;2024-02-16T06:10:18;6.80;99.90
18339;DHT22;9295;44.484;11.240;2024-02-16T06:12:46;6.90;99.90
18339;DHT22;9295;44.484;11.240;2024-02-16T06:15:15;6.90;99.90
18339;DHT22;9295;44.484;11.240;2024-02-16T06:17:44;6.90;99.90
18339;DHT22;9295;44.484;11.240;2024-02-16T06:20:13;6.90;99.90
18339;DHT22;9295;44.484;11.240;2024-02-16T06:22:47;6.90;99.90
18339;DHT22;9295;44.484;11.240;2024-02-16T06:25:19;6.90;99.90
18339;DHT22;9295;44.484;11.240;2024-02-16T06:27:48;6.90;99.90
18339;DHT22;9295;44.484;11.240;2024-02-16T06:30:20;6.90;99.90
18339;DHT22;9295;44.484;11.240;2024-02-16T06:32:50;7.00;99.90
18339;DHT22;9295;44.484;11.240;2024-02-16T06:35:19;6.90;99.90
18339;DHT22;9295;44.484;11.240;2024-02-16T06:37:53;6.90;99.90
18339;DHT22;9295;44.484;11.240;2024-02-16T06:40:24;7.00;99.90
18339;DHT22;9295;44.484;11.240;2024-02-16T06:42:54;7.00;99.90
18339;DHT22;9295;44.484;11.240;2024-02-16T06:45:23;7.10;99.90
18339;DHT22;9295;44.484;11.240;2024-02-16T06:47:53;7.20;99.90
18339;DHT22;9295;44.484;11.240;2024-02-16T06:50:22;7.20;99.90
18339;DHT22;9295;44.484;11.240;2024-02-16T06:52:51;7.30;99.90
18339;DHT22;9295;44.484;11.240;2024-02-16T06:55:23;7.30;99.90
18339;DHT22;9295;44.484;11.240;2024-02-16T06:57:52;7.40;99.90
18339;DHT22;9295;44.484;11.240;2024-02-16T07:00:21;7.40;99.90
18339;DHT22;9295;44.484;11.240;2024-02-16T07:02:50;7.50;99.90
18339;DHT22;9295;44.484;11.240;2024-02-16T07:05:19;7.50;99.90
18339;DHT22;9295;44.484;11.240;2024-02-16T07:07:48;7.50;99.90
18339;DHT22;9295;44.484;11.240;2024-02-16T07:10:17;7.60;99.90
18339;DHT22;9295;44.484;11.240;2024-02-16T07:12:47;7.60;99.90
18339;DHT22;9295;44.484;11.240;2024-02-16T07:15:16;7.70;99.90
18339;DHT22;9295;44.484;11.240;2024-02-16T07:17:45;7.80;99.90
18339;DHT22;9295;44.484;11.240;2024-02-16T07:20:14;7.90;99.90
18339;DHT22;9295;44.484;11.240;2024-02-16T07:22:43;8.00;99.90
18339;DHT22;9295;44.484;11.240;2024-02-16T07:25:14;8.40;99.90
18339;DHT22;9295;44.484;11.240;2024-02-16T07:27:42;9.00;99.90
18339;DHT22;9295;44.484;11.240;2024-02-16T07:30:13;9.60;99.90
18339;DHT22;9295;44.484;11.240;2024-02-16T07:32:53;9.70;99.90
18339;DHT22;9295;44.484;11.240;2024-02-16T07:35:22;9.70;99.90
18339;DHT22;9295;44.484;11.240;2024-02-16T07:37:51;9.80;99.90
18339;DHT22;9295;44.484;11.240;2024-02-16T07:40:22;10.70;99.90
18339;DHT22;9295;44.484;11.240;2024-02-16T07:42:51;11.60;99.90
18339;DHT22;9295;44.484;11.240;2024-02-16T07:45:22;12.30;99.90
18339;DHT22;9295;44.484;11.240;2024-02-16T07:47:51;12.30;99.90
18339;DHT22;9295;44.484;11.240;2024-02-16T07:50:21;12.60;99.90
18339;DHT22;9295;44.484;11.240;2024-02-16T07:52:50;13.10;99.90
18339;DHT22;9295;44.484;11.240;2024-02-16T07:55:19;13.20;99.90
18339;DHT22;9295;44.484;11.240;2024-02-16T07:57:49;13.50;99.90
18339;DHT22;9295;44.484;11.240;2024-02-16T08:00:19;14.20;99.90
18339;DHT22;9295;44.484;11.240;2024-02-16T08:02:49;14.80;99.90
18339;DHT22;9295;44.484;11.240;2024-02-16T08:05:18;15.60;99.90
18339;DHT22;9295;44.484;11.240;2024-02-16T08:07:47;16.00;99.90
18339;DHT22;9295;44.484;11.240;2024-02-16T08:10:19;16.50;99.90
18339;DHT22;9295;44.484;11.240;2024-02-16T08:12:49;16.30;99.90
18339;DHT22;9295;44.484;11.240;2024-02-16T08:15:18;15.60;99.90
18339;DHT22;9295;44.484;11.240;2024-02-16T08:17:52;15.60;99.90
18339;DHT22;9295;44.484;11.240;2024-02-16T08:20:22;16.10;99.90
18339;DHT22;9295;44.484;11.240;2024-02-16T08:22:51;16.70;99.90
18339;DHT22;9295;44.484;11.240;2024-02-16T08:25:20;16.80;99.90
18339;DHT22;9295;44.484;11.240;2024-02-16T08:27:49;16.90;99.90
18339;DHT22;9295;44.484;11.240;2024-02-16T08:30:18;16.60;99.90
18339;DHT22;9295;44.484;11.240;2024-02-16T08:32:47;16.40;99.90
18339;DHT22;9295;44.484;11.240;2024-02-16T08:35:17;16.00;99.90
18339;DHT22;9295;44.484;11.240;2024-02-16T08:37:46;15.40;99.90
18339;DHT22;9295;44.484;11.240;2024-02-16T08:40:16;14.90;99.90
18339;DHT22;9295;44.484;11.240;2024-02-16T08:42:44;14.50;99.90
18339;DHT22;9295;44.484;11.240;2024-02-16T08:45:14;14.00;99.90
18339;DHT22;9295;44.484;11.240;2024-02-16T08:47:45;13.60;99.90
18339;DHT22;9295;44.484;11.240;2024-02-16T08:50:20;13.40;99.90
18339;DHT22;9295;44.484;11.240;2024-02-16T08:52:49;13.20;99.90
18339;DHT22;9295;44.484;11.240;2024-02-16T08:55:19;13.10;99.90
18339;DHT22;9295;44.484;11.240;2024-02-16T08:57:49;13.10;99.90
18339;DHT22;9295;44.484;11.240;2024-02-16T09:00:18;13.10;99.90
18339;DHT22;9295;44.484;11.240;2024-02-16T09:02:47;13.00;99.90
18339;DHT22;9295;44.484;11.240;2024-02-16T09:05:15;13.10;99.90
18339;DHT22;9295;44.484;11.240;2024-02-16T09:07:46;13.40;99.90
18339;DHT22;9295;44.484;11.240;2024-02-16T09:10:15;13.60;99.90
18339;DHT22;9295;44.484;11.240;2024-02-16T09:12:43;13.70;99.90
18339;DHT22;9295;44.484;11.240;2024-02-16T09:15:12;13.80;99.90
18339;DHT22;9295;44.484;11.240;2024-02-16T09:17:42;13.70;99.90
18339;DHT22;9295;44.484;11.240;2024-02-16T09:20:12;13.70;99.90
18339;DHT22;9295;44.484;11.240;2024-02-16T09:22:41;13.60;99.90
18339;DHT22;9295;44.484;11.240;2024-02-16T09:25:15;13.50;99.90
18339;DHT22;9295;44.484;11.240;2024-02-16T09:27:44;13.40;99.90
18339;DHT22;9295;44.484;11.240;2024-02-16T09:30:13;13.40;99.90
18339;DHT22;9295;44.484;11.240;2024-02-16T09:32:42;13.40;99.90
18339;DHT22;9295;44.484;11.240;2024-02-16T09:35:12;13.30;99.90
18339;DHT22;9295;44.484;11.240;2024-02-16T09:37:41;13.30;99.90
18339;DHT22;9295;44.484;11.240;2024-02-16T09:40:12;13.30;99.90
18339;DHT22;9295;44.484;11.240;2024-02-16T09:42:48;13.30;99.90
18339;DHT22;9295;44.484;11.240;2024-02-16T09:45:18;13.30;99.90
18339;DHT22;9295;44.484;11.240;2024-02-16T09:47:47;13.20;99.90
18339;DHT22;9295;44.484;11.240;2024-02-16T09:50:29;13.30;99.90
18339;DHT22;9295;44.484;11.240;2024-02-16T09:52:58;13.40;99.90
18339;DHT22;9295;44.484;11.240;2024-02-16T09:55:32;13.50;99.90
18339;DHT22;9295;44.484;11.240;2024-02-16T09:58:02;13.60;99.90
18339;DHT22;9295;44.484;11.240;2024-02-16T10:00:32;13.60;99.90
18339;DHT22;9295;44.484;11.240;2024-02-16T10:03:01;13.70;99.90
18339;DHT22;9295;44.484;11.240;2024-02-16T10:05:31;13.90;99.90
18339;DHT22;9295;44.484;11.240;2024-02-16T10:08:00;13.90;99.90
18339;DHT22;9295;44.484;11.240;2024-02-16T10:10:39;13.90;99.90
18339;DHT22;9295;44.484;11.240;2024-02-16T10:13:09;14.10;99.90
18339;DHT22;9295;44.484;11.240;2024-02-16T10:15:38;14.10;99.90
18339;DHT22;9295;44.484;11.240;2024-02-16T10:18:08;14.20;99.90
18339;DHT22;9295;44.484;11.240;2024-02-16T10:20:38;14.30;99.90
18339;DHT22;9295;44.484;11.240;2024-02-16T10:23:09;14.30;99.90
18339;DHT22;9295;44.484;11.240;2024-02-16T10:25:39;14.30;99.90
18339;DHT22;9295;44.484;11.240;2024-02-16T10:28:10;14.20;99.90
18339;DHT22;9295;44.484;11.240;2024-02-16T10:30:42;14.10;99.90
18339;DHT22;9295;44.484;11.240;2024-02-16T10:33:12;14.10;99.90
18339;DHT22;9295;44.484;11.240;2024-02-16T10:35:41;14.20;99.90
18339;DHT22;9295;44.484;11.240;2024-02-16T10:38:12;14.20;99.90
18339;DHT22;9295;44.484;11.240;2024-02-16T10:40:42;14.30;99.90
18339;DHT22;9295;44.484;11.240;2024-02-16T10:43:13;14.30;99.90
18339;DHT22;9295;44.484;11.240;2024-02-16T10:45:44;14.20;99.90
18339;DHT22;9295;44.484;11.240;2024-02-16T10:48:19;14.20;99.90
18339;DHT22;9295;44.484;11.240;2024-02-16T10:50:49;14.30;99.90
18339;DHT22;9295;44.484;11.240;2024-02-16T10:53:22;14.40;99.90
18339;DHT22;9295;44.484;11.240;2024-02-16T10:55:52;14.40;99.90
18339;DHT22;9295;44.484;11.240;2024-02-16T10:58:22;14.30;99.90
18339;DHT22;9295;44.484;11.240;2024-02-16T11:00:52;14.20;99.90
18339;DHT22;9295;44.484;11.240;2024-02-16T11:03:22;14.10;99.90
18339;DHT22;9295;44.484;11.240;2024-02-16T11:05:53;14.00;99.90
18339;DHT22;9295;44.484;11.240;2024-02-16T11:08:24;13.90;99.90
18339;DHT22;9295;44.484;11.240;2024-02-16T11:10:57;13.90;99.90
18339;DHT22;9295;44.484;11.240;2024-02-16T11:13:28;13.90;99.90
18339;DHT22;9295;44.484;11.240;2024-02-16T11:15:57;13.90;99.90
18339;DHT22;9295;44.484;11.240;2024-02-16T11:18:28;14.00;99.90
18339;DHT22;9295;44.484;11.240;2024-02-16T11:21:01;14.10;99.90
18339;DHT22;9295;44.484;11.240;2024-02-16T11:23:31;14.20;99.90
18339;DHT22;9295;44.484;11.240;2024-02-16T11:26:03;14.20;99.90
18339;DHT22;9295;44.484;11.240;2024-02-16T11:28:34;14.10;99.90
18339;DHT22;9295;44.484;11.240;2024-02-16T11:31:04;14.10;99.90
18339;DHT22;9295;44.484;11.240;2024-02-16T11:33:34;14.00;99.90
18339;DHT22;9295;44.484;11.240;2024-02-16T11:36:06;14.00;99.90
18339;DHT22;9295;44.484;11.240;2024-02-16T11:38:36;14.10;99.90
18339;DHT22;9295;44.484;11.240;2024-02-16T11:41:05;14.00;99.90
18339;DHT22;9295;44.484;11.240;2024-02-16T11:43:36;14.00;99.90
18339;DHT22;9295;44.484;11.240;2024-02-16T11:46:12;14.10;99.90
18339;DHT22;9295;44.484;11.240;2024-02-16T11:48:41;14.10;99.90
18339;DHT22;9295;44.484;11.240;2024-02-16T11:51:10;14.30;99.90
18339;DHT22;9295;44.484;11.240;2024-02-16T11:53:39;14.20;99.90
18339;DHT22;9295;44.484;11.240;2024-02-16T11:56:08;14.20;99.90
18339;DHT22;9295;44.484;11.240;2024-02-16T11:58:38;14.40;99.90
18339;DHT22;9295;44.484;11.240;2024-02-16T12:01:11;14.50;99.90
18339;DHT22;9295;44.484;11.240;2024-02-16T12:03:41;14.60;99.90
18339;DHT22;9295;44.484;11.240;2024-02-16T12:06:19;14.60;99.90
18339;DHT22;9295;44.484;11.240;2024-02-16T12:08:51;14.70;99.90
18339;DHT22;9295;44.484;11.240;2024-02-16T12:11:21;14.70;99.90
18339;DHT22;9295;44.484;11.240;2024-02-16T12:13:54;14.50;99.90
18339;DHT22;9295;44.484;11.240;2024-02-16T12:16:25;14.20;99.90
18339;DHT22;9295;44.484;11.240;2024-02-16T12:19:03;14.30;99.90
18339;DHT22;9295;44.484;11.240;2024-02-16T12:21:32;14.30;99.90
18339;DHT22;9295;44.484;11.240;2024-02-16T12:24:03;14.30;99.90
18339;DHT22;9295;44.484;11.240;2024-02-16T12:26:32;14.30;99.90
18339;DHT22;9295;44.484;11.240;2024-02-16T12:29:03;14.30;99.90
18339;DHT22;9295;44.484;11.240;2024-02-16T12:31:31;14.40;99.90
18339;DHT22;9295;44.484;11.240;2024-02-16T12:34:00;14.50;99.90
18339;DHT22;9295;44.484;11.240;2024-02-16T12:36:32;14.50;99.90
18339;DHT22;9295;44.484;11.240;2024-02-16T12:39:01;14.50;99.90
18339;DHT22;9295;44.484;11.240;2024-02-16T12:41:31;14.50;99.90
18339;DHT22;9295;44.484;11.240;2024-02-16T12:44:00;14.60;99.90
18339;DHT22;9295;44.484;11.240;2024-02-16T12:46:31;14.70;99.90
18339;DHT22;9295;44.484;11.240;2024-02-16T12:48:59;14.70;99.90
18339;DHT22;9295;44.484;11.240;2024-02-16T12:51:29;14.80;99.90
18339;DHT22;9295;44.484;11.240;2024-02-16T12:53:58;14.80;99.90
18339;DHT22;9295;44.484;11.240;2024-02-16T12:56:27;14.70;99.90
18339;DHT22;9295;44.484;11.240;2024-02-16T12:58:56;14.70;99.90
18339;DHT22;9295;44.484;11.240;2024-02-16T13:01:28;14.90;99.90
18339;DHT22;9295;44.484;11.240;2024-02-16T13:03:59;14.80;99.90
18339;DHT22;9295;44.484;11.240;2024-02-16T13:06:28;14.80;99.90
18339;DHT22;9295;44.484;11.240;2024-02-16T13:08:58;14.80;99.90
18339;DHT22;9295;44.484;11.240;2024-02-16T13:11:27;14.90;99.90
18339;DHT22;9295;44.484;11.240;2024-02-16T13:13:57;15.00;99.90
18339;DHT22;9295;44.484;11.240;2024-02-16T13:16:26;15.10;99.90
18339;DHT22;9295;44.484;11.240;2024-02-16T13:18:55;15.20;99.90
18339;DHT22;9295;44.484;11.240;2024-02-16T13:21:25;15.20;99.90
18339;DHT22;9295;44.484;11.240;2024-02-16T13:23:55;15.10;99.90
18339;DHT22;9295;44.484;11.240;2024-02-16T13:26:25;15.00;99.90
18339;DHT22;9295;44.484;11.240;2024-02-16T13:28:55;14.90;99.90
18339;DHT22;9295;44.484;11.240;2024-02-16T13:31:25;14.90;99.90
18339;DHT22;9295;44.484;11.240;2024-02-16T13:33:54;14.70;99.90
18339;DHT22;9295;44.484;11.240;2024-02-16T13:36:25;14.60;99.90
18339;DHT22;9295;44.484;11.240;2024-02-16T13:38:55;14.60;99.90
18339;DHT22;9295;44.484;11.240;2024-02-16T13:41:25;14.60;99.90
18339;DHT22;9295;44.484;11.240;2024-02-16T13:43:54;14.70;99.90
18339;DHT22;9295;44.484;11.240;2024-02-16T13:46:23;14.60;99.90
18339;DHT22;9295;44.484;11.240;2024-02-16T13:48:52;14.60;99.90
18339;DHT22;9295;44.484;11.240;2024-02-16T13:51:21;14.70;99.90
18339;DHT22;9295;44.484;11.240;2024-02-16T13:53:52;14.80;99.90
18339;DHT22;9295;44.484;11.240;2024-02-16T13:56:20;15.00;99.90
18339;DHT22;9295;44.484;11.240;2024-02-16T13:58:49;15.10;99.90
18339;DHT22;9295;44.484;11.240;2024-02-16T14:01:18;15.10;99.90
18339;DHT22;9295;44.484;11.240;2024-02-16T14:03:48;15.10;99.90
18339;DHT22;9295;44.484;11.240;2024-02-16T14:06:18;15.20;99.90
18339;DHT22;9295;44.484;11.240;2024-02-16T14:08:47;15.20;99.90
18339;DHT22;9295;44.484;11.240;2024-02-16T14:11:17;15.30;99.90
18339;DHT22;9295;44.484;11.240;2024-02-16T14:13:46;15.30;99.90
18339;DHT22;9295;44.484;11.240;2024-02-16T14:16:15;15.30;99.90
18339;DHT22;9295;44.484;11.240;2024-02-16T14:18:43;15.30;99.90
18339;DHT22;9295;44.484;11.240;2024-02-16T14:21:12;15.20;99.90
18339;DHT22;9295;44.484;11.240;2024-02-16T14:23:41;15.10;99.90
18339;DHT22;9295;44.484;11.240;2024-02-16T14:26:10;15.30;99.90
18339;DHT22;9295;44.484;11.240;2024-02-16T14:28:41;15.20;99.90
18339;DHT22;9295;44.484;11.240;2024-02-16T14:31:09;15.20;99.90
18339;DHT22;9295;44.484;11.240;2024-02-16T14:33:40;15.10;99.90
18339;DHT22;9295;44.484;11.240;2024-02-16T14:36:10;15.20;99.90
18339;DHT22;9295;44.484;11.240;2024-02-16T14:38:39;15.20;99.90
18339;DHT22;9295;44.484;11.240;2024-02-16T14:41:08;15.30;99.90
18339;DHT22;9295;44.484;11.240;2024-02-16T14:43:37;15.40;99.90
18339;DHT22;9295;44.484;11.240;2024-02-16T14:46:07;15.40;99.90
18339;DHT22;9295;44.484;11.240;2024-02-16T14:48:36;15.40;99.90
18339;DHT22;9295;44.484;11.240;2024-02-16T14:51:05;15.30;99.90
18339;DHT22;9295;44.484;11.240;2024-02-16T14:53:34;15.30;99.90
18339;DHT22;9295;44.484;11.240;2024-02-16T14:56:03;15.30;99.90
18339;DHT22;9295;44.484;11.240;2024-02-16T14:58:32;15.30;99.90
18339;DHT22;9295;44.484;11.240;2024-02-16T15:01:02;15.30;99.90
18339;DHT22;9295;44.484;11.240;2024-02-16T15:03:32;15.40;99.90
18339;DHT22;9295;44.484;11.240;2024-02-16T15:06:02;15.40;99.90
18339;DHT22;9295;44.484;11.240;2024-02-16T15:08:31;15.30;99.90
18339;DHT22;9295;44.484;11.240;2024-02-16T15:10:59;15.20;99.90
18339;DHT22;9295;44.484;11.240;2024-02-16T15:13:28;15.10;99.90
18339;DHT22;9295;44.484;11.240;2024-02-16T15:15:58;15.10;99.90
18339;DHT22;9295;44.484;11.240;2024-02-16T15:18:27;15.10;99.90
18339;DHT22;9295;44.484;11.240;2024-02-16T15:20:57;15.10;99.90
18339;DHT22;9295;44.484;11.240;2024-02-16T15:23:28;15.00;99.90
18339;DHT22;9295;44.484;11.240;2024-02-16T15:25:56;15.00;99.90
18339;DHT22;9295;44.484;11.240;2024-02-16T15:28:26;14.80;99.90
18339;DHT22;9295;44.484;11.240;2024-02-16T15:30:54;14.70;99.90
18339;DHT22;9295;44.484;11.240;2024-02-16T15:33:23;14.70;99.90
18339;DHT22;9295;44.484;11.240;2024-02-16T15:35:52;14.60;99.90
18339;DHT22;9295;44.484;11.240;2024-02-16T15:38:23;14.50;99.90
18339;DHT22;9295;44.484;11.240;2024-02-16T15:40:52;14.50;99.90
18339;DHT22;9295;44.484;11.240;2024-02-16T15:43:22;14.50;99.90
18339;DHT22;9295;44.484;11.240;2024-02-16T15:45:51;14.40;99.90
18339;DHT22;9295;44.484;11.240;2024-02-16T15:48:20;14.30;99.90
18339;DHT22;9295;44.484;11.240;2024-02-16T15:50:49;14.30;99.90
18339;DHT22;9295;44.484;11.240;2024-02-16T15:53:24;14.20;99.90